sensor_id;sensor_type;location;lat;lon;timestamp;P1;durP1;ratioP1;P2;durP2;ratioP2
56481;SDS011;42384;45.186;19.958;2024-01-25T00:01:27;5.78;;;2.78;;
56481;SDS011;42384;45.186;19.958;2024-01-25T00:03:53;5.95;;;2.83;;
56481;SDS011;42384;45.186;19.958;2024-01-25T00:06:19;4.72;;;2.17;;
56481;SDS011;42384;45.186;19.958;2024-01-25T00:08:46;4.25;;;2.65;;
56481;SDS011;42384;45.186;19.958;2024-01-25T00:11:13;5.40;;;2.72;;
56481;SDS011;42384;45.186;19.958;2024-01-25T00:13:39;7.63;;;3.20;;
56481;SDS011;42384;45.186;19.958;2024-01-25T00:16:05;7.57;;;2.85;;
56481;SDS011;42384;45.186;19.958;2024-01-25T00:18:31;8.57;;;3.17;;
56481;SDS011;42384;45.186;19.958;2024-01-25T00:20:57;6.43;;;2.78;;
56481;SDS011;42384;45.186;19.958;2024-01-25T00:23:23;5.85;;;2.40;;
56481;SDS011;42384;45.186;19.958;2024-01-25T00:25:50;7.47;;;3.67;;
56481;SDS011;42384;45.186;19.958;2024-01-25T00:28:16;7.20;;;3.72;;
56481;SDS011;42384;45.186;19.958;2024-01-25T00:30:42;9.20;;;3.03;;
56481;SDS011;42384;45.186;19.958;2024-01-25T00:33:08;11.32;;;3.65;;
56481;SDS011;42384;45.186;19.958;2024-01-25T00:35:34;6.65;;;2.80;;
56481;SDS011;42384;45.186;19.958;2024-01-25T00:38:01;9.07;;;3.50;;
56481;SDS011;42384;45.186;19.958;2024-01-25T00:40:27;6.27;;;2.50;;
56481;SDS011;42384;45.186;19.958;2024-01-25T00:42:53;7.15;;;3.72;;
56481;SDS011;42384;45.186;19.958;2024-01-25T00:47:46;11.30;;;3.60;;
56481;SDS011;42384;45.186;19.958;2024-01-25T00:50:13;7.73;;;3.27;;
56481;SDS011;42384;45.186;19.958;2024-01-25T00:52:42;8.15;;;3.40;;
56481;SDS011;42384;45.186;19.958;2024-01-25T00:55:09;12.43;;;3.03;;
56481;SDS011;42384;45.186;19.958;2024-01-25T00:57:36;7.97;;;4.25;;
56481;SDS011;42384;45.186;19.958;2024-01-25T01:00:02;7.20;;;3.25;;
56481;SDS011;42384;45.186;19.958;2024-01-25T01:02:29;7.53;;;3.42;;
56481;SDS011;42384;45.186;19.958;2024-01-25T01:04:58;8.32;;;3.25;;
56481;SDS011;42384;45.186;19.958;2024-01-25T01:07:24;6.50;;;2.97;;
56481;SDS011;42384;45.186;19.958;2024-01-25T01:09:50;8.65;;;3.38;;
56481;SDS011;42384;45.186;19.958;2024-01-25T01:12:17;7.68;;;3.53;;
56481;SDS011;42384;45.186;19.958;2024-01-25T01:14:43;9.23;;;3.30;;
56481;SDS011;42384;45.186;19.958;2024-01-25T01:17:09;7.45;;;3.10;;
56481;SDS011;42384;45.186;19.958;2024-01-25T01:19:35;12.32;;;3.65;;
56481;SDS011;42384;45.186;19.958;2024-01-25T01:22:02;7.25;;;2.97;;
56481;SDS011;42384;45.186;19.958;2024-01-25T01:24:28;9.63;;;3.33;;
56481;SDS011;42384;45.186;19.958;2024-01-25T01:26:54;10.57;;;3.72;;
56481;SDS011;42384;45.186;19.958;2024-01-25T01:29:20;7.50;;;3.33;;
56481;SDS011;42384;45.186;19.958;2024-01-25T01:31:46;9.27;;;4.07;;
56481;SDS011;42384;45.186;19.958;2024-01-25T01:34:12;11.30;;;4.00;;
56481;SDS011;42384;45.186;19.958;2024-01-25T01:36:39;11.15;;;4.38;;
56481;SDS011;42384;45.186;19.958;2024-01-25T01:39:05;13.27;;;4.63;;
56481;SDS011;42384;45.186;19.958;2024-01-25T01:41:32;10.73;;;4.20;;
56481;SDS011;42384;45.186;19.958;2024-01-25T01:43:58;10.77;;;4.07;;
56481;SDS011;42384;45.186;19.958;2024-01-25T01:46:31;9.17;;;3.60;;
56481;SDS011;42384;45.186;19.958;2024-01-25T01:48:59;10.35;;;4.28;;
56481;SDS011;42384;45.186;19.958;2024-01-25T01:51:25;12.02;;;4.35;;
56481;SDS011;42384;45.186;19.958;2024-01-25T01:53:52;15.57;;;7.25;;
56481;SDS011;42384;45.186;19.958;2024-01-25T01:56:19;11.95;;;5.65;;
56481;SDS011;42384;45.186;19.958;2024-01-25T01:58:46;11.43;;;4.85;;
56481;SDS011;42384;45.186;19.958;2024-01-25T02:01:13;8.68;;;4.30;;
56481;SDS011;42384;45.186;19.958;2024-01-25T02:03:39;8.63;;;4.70;;
56481;SDS011;42384;45.186;19.958;2024-01-25T02:06:06;8.25;;;4.07;;
56481;SDS011;42384;45.186;19.958;2024-01-25T02:08:33;9.07;;;4.28;;
56481;SDS011;42384;45.186;19.958;2024-01-25T02:10:59;12.45;;;6.32;;
56481;SDS011;42384;45.186;19.958;2024-01-25T02:13:25;14.45;;;7.78;;
56481;SDS011;42384;45.186;19.958;2024-01-25T02:15:51;13.00;;;7.32;;
56481;SDS011;42384;45.186;19.958;2024-01-25T02:18:18;9.60;;;5.40;;
56481;SDS011;42384;45.186;19.958;2024-01-25T02:20:44;8.73;;;3.78;;
56481;SDS011;42384;45.186;19.958;2024-01-25T02:23:10;10.70;;;4.50;;
56481;SDS011;42384;45.186;19.958;2024-01-25T02:25:37;10.73;;;4.28;;
56481;SDS011;42384;45.186;19.958;2024-01-25T02:28:03;11.63;;;5.67;;
56481;SDS011;42384;45.186;19.958;2024-01-25T02:30:29;9.93;;;4.18;;
56481;SDS011;42384;45.186;19.958;2024-01-25T02:32:56;11.07;;;3.73;;
56481;SDS011;42384;45.186;19.958;2024-01-25T02:35:22;7.80;;;3.80;;
56481;SDS011;42384;45.186;19.958;2024-01-25T02:37:48;8.20;;;3.93;;
56481;SDS011;42384;45.186;19.958;2024-01-25T02:40:16;9.15;;;3.72;;
56481;SDS011;42384;45.186;19.958;2024-01-25T02:42:42;7.43;;;3.50;;
56481;SDS011;42384;45.186;19.958;2024-01-25T02:45:08;7.70;;;3.77;;
56481;SDS011;42384;45.186;19.958;2024-01-25T02:47:35;8.57;;;4.23;;
56481;SDS011;42384;45.186;19.958;2024-01-25T02:50:01;9.27;;;4.28;;
56481;SDS011;42384;45.186;19.958;2024-01-25T02:52:27;10.20;;;3.60;;
56481;SDS011;42384;45.186;19.958;2024-01-25T02:54:53;9.03;;;4.20;;
56481;SDS011;42384;45.186;19.958;2024-01-25T02:57:20;12.40;;;5.90;;
56481;SDS011;42384;45.186;19.958;2024-01-25T02:59:46;9.40;;;5.40;;
56481;SDS011;42384;45.186;19.958;2024-01-25T03:02:12;7.17;;;3.83;;
56481;SDS011;42384;45.186;19.958;2024-01-25T03:04:39;6.88;;;4.03;;
56481;SDS011;42384;45.186;19.958;2024-01-25T03:07:05;7.77;;;4.23;;
56481;SDS011;42384;45.186;19.958;2024-01-25T03:09:31;10.77;;;4.90;;
56481;SDS011;42384;45.186;19.958;2024-01-25T03:11:57;8.40;;;3.80;;
56481;SDS011;42384;45.186;19.958;2024-01-25T03:14:24;8.90;;;4.05;;
56481;SDS011;42384;45.186;19.958;2024-01-25T03:16:50;6.63;;;3.33;;
56481;SDS011;42384;45.186;19.958;2024-01-25T03:19:17;7.70;;;3.33;;
56481;SDS011;42384;45.186;19.958;2024-01-25T03:21:44;12.95;;;4.80;;
56481;SDS011;42384;45.186;19.958;2024-01-25T03:24:10;9.70;;;3.45;;
56481;SDS011;42384;45.186;19.958;2024-01-25T03:26:38;10.67;;;3.77;;
56481;SDS011;42384;45.186;19.958;2024-01-25T03:29:05;9.75;;;3.92;;
56481;SDS011;42384;45.186;19.958;2024-01-25T03:31:32;8.95;;;3.35;;
56481;SDS011;42384;45.186;19.958;2024-01-25T03:34:00;6.40;;;3.33;;
56481;SDS011;42384;45.186;19.958;2024-01-25T03:36:28;11.88;;;3.72;;
56481;SDS011;42384;45.186;19.958;2024-01-25T03:38:55;8.43;;;3.08;;
56481;SDS011;42384;45.186;19.958;2024-01-25T03:41:22;9.60;;;3.55;;
56481;SDS011;42384;45.186;19.958;2024-01-25T03:43:50;8.68;;;3.70;;
56481;SDS011;42384;45.186;19.958;2024-01-25T03:46:17;9.77;;;3.42;;
56481;SDS011;42384;45.186;19.958;2024-01-25T03:51:12;10.57;;;3.70;;
56481;SDS011;42384;45.186;19.958;2024-01-25T03:56:14;11.23;;;4.30;;
56481;SDS011;42384;45.186;19.958;2024-01-25T03:58:45;10.40;;;3.70;;
56481;SDS011;42384;45.186;19.958;2024-01-25T04:01:12;11.60;;;4.13;;
56481;SDS011;42384;45.186;19.958;2024-01-25T04:03:39;8.98;;;3.97;;
56481;SDS011;42384;45.186;19.958;2024-01-25T04:06:05;12.20;;;3.97;;
56481;SDS011;42384;45.186;19.958;2024-01-25T04:08:31;14.10;;;6.47;;
56481;SDS011;42384;45.186;19.958;2024-01-25T04:10:58;12.63;;;4.43;;
56481;SDS011;42384;45.186;19.958;2024-01-25T04:13:24;10.60;;;4.27;;
56481;SDS011;42384;45.186;19.958;2024-01-25T04:15:50;11.65;;;4.90;;
56481;SDS011;42384;45.186;19.958;2024-01-25T04:18:16;10.23;;;4.45;;
56481;SDS011;42384;45.186;19.958;2024-01-25T04:20:43;12.07;;;5.28;;
56481;SDS011;42384;45.186;19.958;2024-01-25T04:23:10;11.98;;;4.60;;
56481;SDS011;42384;45.186;19.958;2024-01-25T04:25:36;11.97;;;4.63;;
56481;SDS011;42384;45.186;19.958;2024-01-25T04:28:02;10.93;;;4.33;;
56481;SDS011;42384;45.186;19.958;2024-01-25T04:30:29;11.73;;;4.83;;
56481;SDS011;42384;45.186;19.958;2024-01-25T04:32:56;13.18;;;5.03;;
56481;SDS011;42384;45.186;19.958;2024-01-25T04:35:23;13.03;;;4.67;;
56481;SDS011;42384;45.186;19.958;2024-01-25T04:37:49;13.63;;;4.50;;
56481;SDS011;42384;45.186;19.958;2024-01-25T04:40:15;14.63;;;4.70;;
56481;SDS011;42384;45.186;19.958;2024-01-25T04:42:42;12.70;;;4.78;;
56481;SDS011;42384;45.186;19.958;2024-01-25T04:45:09;11.40;;;4.20;;
56481;SDS011;42384;45.186;19.958;2024-01-25T04:47:37;11.95;;;4.50;;
56481;SDS011;42384;45.186;19.958;2024-01-25T04:50:04;15.35;;;4.72;;
56481;SDS011;42384;45.186;19.958;2024-01-25T04:52:30;14.17;;;4.87;;
56481;SDS011;42384;45.186;19.958;2024-01-25T04:54:56;10.97;;;4.20;;
56481;SDS011;42384;45.186;19.958;2024-01-25T04:57:22;12.73;;;4.43;;
56481;SDS011;42384;45.186;19.958;2024-01-25T04:59:49;14.03;;;4.27;;
56481;SDS011;42384;45.186;19.958;2024-01-25T05:02:15;12.93;;;4.55;;
56481;SDS011;42384;45.186;19.958;2024-01-25T05:04:41;15.97;;;4.60;;
56481;SDS011;42384;45.186;19.958;2024-01-25T05:07:08;14.77;;;4.63;;
56481;SDS011;42384;45.186;19.958;2024-01-25T05:09:34;16.73;;;5.40;;
56481;SDS011;42384;45.186;19.958;2024-01-25T05:12:00;17.77;;;5.43;;
56481;SDS011;42384;45.186;19.958;2024-01-25T05:14:27;16.92;;;5.05;;
56481;SDS011;42384;45.186;19.958;2024-01-25T05:16:53;15.10;;;5.60;;
56481;SDS011;42384;45.186;19.958;2024-01-25T05:19:19;14.93;;;5.70;;
56481;SDS011;42384;45.186;19.958;2024-01-25T05:21:46;13.52;;;4.65;;
56481;SDS011;42384;45.186;19.958;2024-01-25T05:24:12;16.65;;;5.28;;
56481;SDS011;42384;45.186;19.958;2024-01-25T05:26:39;12.55;;;4.55;;
56481;SDS011;42384;45.186;19.958;2024-01-25T05:29:05;13.53;;;5.07;;
56481;SDS011;42384;45.186;19.958;2024-01-25T05:31:31;14.07;;;5.15;;
56481;SDS011;42384;45.186;19.958;2024-01-25T05:33:57;13.67;;;5.33;;
56481;SDS011;42384;45.186;19.958;2024-01-25T05:36:24;19.37;;;5.43;;
56481;SDS011;42384;45.186;19.958;2024-01-25T05:38:50;14.10;;;4.73;;
56481;SDS011;42384;45.186;19.958;2024-01-25T05:41:16;14.10;;;4.70;;
56481;SDS011;42384;45.186;19.958;2024-01-25T05:43:43;12.47;;;5.10;;
56481;SDS011;42384;45.186;19.958;2024-01-25T05:46:10;14.73;;;4.78;;
56481;SDS011;42384;45.186;19.958;2024-01-25T05:48:36;13.03;;;4.77;;
56481;SDS011;42384;45.186;19.958;2024-01-25T05:51:02;13.00;;;4.90;;
56481;SDS011;42384;45.186;19.958;2024-01-25T05:53:29;17.50;;;4.97;;
56481;SDS011;42384;45.186;19.958;2024-01-25T05:55:55;13.70;;;5.30;;
56481;SDS011;42384;45.186;19.958;2024-01-25T05:58:22;13.02;;;4.60;;
56481;SDS011;42384;45.186;19.958;2024-01-25T06:00:48;14.00;;;4.37;;
56481;SDS011;42384;45.186;19.958;2024-01-25T06:03:14;16.73;;;4.80;;
56481;SDS011;42384;45.186;19.958;2024-01-25T06:05:41;11.23;;;4.90;;
56481;SDS011;42384;45.186;19.958;2024-01-25T06:08:07;13.27;;;4.63;;
56481;SDS011;42384;45.186;19.958;2024-01-25T06:10:33;11.27;;;4.50;;
56481;SDS011;42384;45.186;19.958;2024-01-25T06:12:59;11.37;;;4.23;;
56481;SDS011;42384;45.186;19.958;2024-01-25T06:15:26;13.10;;;5.10;;
56481;SDS011;42384;45.186;19.958;2024-01-25T06:17:52;11.83;;;4.60;;
56481;SDS011;42384;45.186;19.958;2024-01-25T06:20:18;15.03;;;4.60;;
56481;SDS011;42384;45.186;19.958;2024-01-25T06:22:45;14.70;;;3.77;;
56481;SDS011;42384;45.186;19.958;2024-01-25T06:25:11;11.48;;;3.63;;
56481;SDS011;42384;45.186;19.958;2024-01-25T06:27:37;9.95;;;3.50;;
56481;SDS011;42384;45.186;19.958;2024-01-25T06:30:04;12.57;;;4.45;;
56481;SDS011;42384;45.186;19.958;2024-01-25T06:32:30;14.80;;;4.68;;
56481;SDS011;42384;45.186;19.958;2024-01-25T06:34:57;10.55;;;3.85;;
56481;SDS011;42384;45.186;19.958;2024-01-25T06:37:23;8.85;;;3.97;;
56481;SDS011;42384;45.186;19.958;2024-01-25T06:39:49;9.57;;;4.17;;
56481;SDS011;42384;45.186;19.958;2024-01-25T06:42:16;9.30;;;3.72;;
56481;SDS011;42384;45.186;19.958;2024-01-25T06:44:42;12.80;;;4.22;;
56481;SDS011;42384;45.186;19.958;2024-01-25T06:47:09;10.80;;;4.55;;
56481;SDS011;42384;45.186;19.958;2024-01-25T06:49:35;11.63;;;4.27;;
56481;SDS011;42384;45.186;19.958;2024-01-25T06:52:01;11.50;;;4.13;;
56481;SDS011;42384;45.186;19.958;2024-01-25T06:54:28;11.82;;;5.03;;
56481;SDS011;42384;45.186;19.958;2024-01-25T06:56:54;12.40;;;4.53;;
56481;SDS011;42384;45.186;19.958;2024-01-25T06:59:21;12.13;;;4.13;;
56481;SDS011;42384;45.186;19.958;2024-01-25T07:04:15;14.68;;;4.78;;
56481;SDS011;42384;45.186;19.958;2024-01-25T07:06:41;16.13;;;4.60;;
56481;SDS011;42384;45.186;19.958;2024-01-25T07:09:07;16.60;;;4.73;;
56481;SDS011;42384;45.186;19.958;2024-01-25T07:11:33;10.10;;;3.87;;
56481;SDS011;42384;45.186;19.958;2024-01-25T07:14:00;10.67;;;3.90;;
56481;SDS011;42384;45.186;19.958;2024-01-25T07:16:26;10.13;;;3.50;;
56481;SDS011;42384;45.186;19.958;2024-01-25T07:18:52;8.73;;;3.40;;
56481;SDS011;42384;45.186;19.958;2024-01-25T07:21:18;12.10;;;4.23;;
56481;SDS011;42384;45.186;19.958;2024-01-25T07:23:45;8.63;;;3.60;;
56481;SDS011;42384;45.186;19.958;2024-01-25T07:26:16;10.63;;;3.83;;
56481;SDS011;42384;45.186;19.958;2024-01-25T07:28:42;9.07;;;3.35;;
56481;SDS011;42384;45.186;19.958;2024-01-25T07:31:08;10.88;;;4.00;;
56481;SDS011;42384;45.186;19.958;2024-01-25T07:33:35;12.27;;;3.80;;
56481;SDS011;42384;45.186;19.958;2024-01-25T07:36:02;10.57;;;4.10;;
56481;SDS011;42384;45.186;19.958;2024-01-25T07:38:28;11.32;;;3.80;;
56481;SDS011;42384;45.186;19.958;2024-01-25T07:40:54;13.55;;;4.75;;
56481;SDS011;42384;45.186;19.958;2024-01-25T07:43:21;10.20;;;4.13;;
56481;SDS011;42384;45.186;19.958;2024-01-25T07:45:47;12.07;;;3.93;;
56481;SDS011;42384;45.186;19.958;2024-01-25T07:48:13;9.00;;;3.40;;
56481;SDS011;42384;45.186;19.958;2024-01-25T07:50:40;9.53;;;4.00;;
56481;SDS011;42384;45.186;19.958;2024-01-25T07:53:06;8.97;;;3.47;;
56481;SDS011;42384;45.186;19.958;2024-01-25T07:55:32;15.50;;;4.93;;
56481;SDS011;42384;45.186;19.958;2024-01-25T07:57:58;11.77;;;3.70;;
56481;SDS011;42384;45.186;19.958;2024-01-25T08:00:24;8.97;;;2.63;;
56481;SDS011;42384;45.186;19.958;2024-01-25T08:02:51;7.17;;;3.00;;
56481;SDS011;42384;45.186;19.958;2024-01-25T08:05:17;10.68;;;3.25;;
56481;SDS011;42384;45.186;19.958;2024-01-25T08:07:44;10.23;;;3.07;;
56481;SDS011;42384;45.186;19.958;2024-01-25T08:10:12;14.55;;;4.07;;
56481;SDS011;42384;45.186;19.958;2024-01-25T08:12:38;8.80;;;2.97;;
56481;SDS011;42384;45.186;19.958;2024-01-25T08:15:05;9.82;;;3.95;;
56481;SDS011;42384;45.186;19.958;2024-01-25T08:17:32;12.93;;;3.58;;
56481;SDS011;42384;45.186;19.958;2024-01-25T08:20:01;11.18;;;3.58;;
56481;SDS011;42384;45.186;19.958;2024-01-25T08:22:27;9.65;;;3.15;;
56481;SDS011;42384;45.186;19.958;2024-01-25T08:24:54;10.98;;;2.78;;
56481;SDS011;42384;45.186;19.958;2024-01-25T08:27:20;15.63;;;4.00;;
56481;SDS011;42384;45.186;19.958;2024-01-25T08:29:46;10.43;;;3.13;;
56481;SDS011;42384;45.186;19.958;2024-01-25T08:32:13;11.63;;;3.50;;
56481;SDS011;42384;45.186;19.958;2024-01-25T08:34:39;12.32;;;3.42;;
56481;SDS011;42384;45.186;19.958;2024-01-25T08:37:05;11.23;;;3.83;;
56481;SDS011;42384;45.186;19.958;2024-01-25T08:39:32;9.75;;;3.40;;
56481;SDS011;42384;45.186;19.958;2024-01-25T08:41:58;7.13;;;3.97;;
56481;SDS011;42384;45.186;19.958;2024-01-25T08:44:27;13.63;;;4.22;;
56481;SDS011;42384;45.186;19.958;2024-01-25T08:46:53;13.00;;;4.32;;
56481;SDS011;42384;45.186;19.958;2024-01-25T08:49:20;10.87;;;4.47;;
56481;SDS011;42384;45.186;19.958;2024-01-25T08:51:46;14.40;;;5.57;;
56481;SDS011;42384;45.186;19.958;2024-01-25T08:54:12;15.47;;;4.10;;
56481;SDS011;42384;45.186;19.958;2024-01-25T08:56:39;14.70;;;4.60;;
56481;SDS011;42384;45.186;19.958;2024-01-25T08:59:05;16.03;;;5.17;;
56481;SDS011;42384;45.186;19.958;2024-01-25T09:03:58;16.60;;;5.38;;
56481;SDS011;42384;45.186;19.958;2024-01-25T09:06:28;11.90;;;4.78;;
56481;SDS011;42384;45.186;19.958;2024-01-25T09:08:55;10.57;;;4.13;;
56481;SDS011;42384;45.186;19.958;2024-01-25T09:11:21;12.93;;;4.07;;
56481;SDS011;42384;45.186;19.958;2024-01-25T09:13:48;13.13;;;4.70;;
56481;SDS011;42384;45.186;19.958;2024-01-25T09:16:15;13.57;;;4.50;;
56481;SDS011;42384;45.186;19.958;2024-01-25T09:18:42;10.98;;;4.68;;
56481;SDS011;42384;45.186;19.958;2024-01-25T09:21:08;14.10;;;5.67;;
56481;SDS011;42384;45.186;19.958;2024-01-25T09:23:34;13.07;;;5.73;;
56481;SDS011;42384;45.186;19.958;2024-01-25T09:26:00;17.05;;;6.35;;
56481;SDS011;42384;45.186;19.958;2024-01-25T09:28:27;13.87;;;6.10;;
56481;SDS011;42384;45.186;19.958;2024-01-25T09:30:53;21.13;;;6.50;;
56481;SDS011;42384;45.186;19.958;2024-01-25T09:33:19;20.03;;;6.70;;
56481;SDS011;42384;45.186;19.958;2024-01-25T09:35:45;18.47;;;9.73;;
56481;SDS011;42384;45.186;19.958;2024-01-25T09:38:12;19.48;;;11.30;;
56481;SDS011;42384;45.186;19.958;2024-01-25T09:40:39;23.35;;;12.88;;
56481;SDS011;42384;45.186;19.958;2024-01-25T09:43:05;19.33;;;10.70;;
56481;SDS011;42384;45.186;19.958;2024-01-25T09:45:33;17.10;;;8.73;;
56481;SDS011;42384;45.186;19.958;2024-01-25T09:48:00;15.50;;;7.82;;
56481;SDS011;42384;45.186;19.958;2024-01-25T09:50:30;18.10;;;8.15;;
56481;SDS011;42384;45.186;19.958;2024-01-25T09:52:59;14.20;;;7.60;;
56481;SDS011;42384;45.186;19.958;2024-01-25T09:55:25;13.80;;;6.97;;
56481;SDS011;42384;45.186;19.958;2024-01-25T09:57:55;16.00;;;6.90;;
56481;SDS011;42384;45.186;19.958;2024-01-25T10:00:22;14.07;;;6.95;;
56481;SDS011;42384;45.186;19.958;2024-01-25T10:02:48;12.00;;;6.35;;
56481;SDS011;42384;45.186;19.958;2024-01-25T10:05:15;12.77;;;5.85;;
56481;SDS011;42384;45.186;19.958;2024-01-25T10:07:42;13.38;;;5.00;;
56481;SDS011;42384;45.186;19.958;2024-01-25T10:10:09;14.23;;;5.68;;
56481;SDS011;42384;45.186;19.958;2024-01-25T10:12:39;10.52;;;4.82;;
56481;SDS011;42384;45.186;19.958;2024-01-25T10:15:06;10.05;;;4.55;;
56481;SDS011;42384;45.186;19.958;2024-01-25T10:17:32;18.70;;;5.60;;
56481;SDS011;42384;45.186;19.958;2024-01-25T10:19:59;11.07;;;5.55;;
56481;SDS011;42384;45.186;19.958;2024-01-25T10:22:25;13.23;;;4.68;;
56481;SDS011;42384;45.186;19.958;2024-01-25T10:24:55;10.90;;;4.22;;
56481;SDS011;42384;45.186;19.958;2024-01-25T10:27:21;11.37;;;4.07;;
56481;SDS011;42384;45.186;19.958;2024-01-25T10:29:48;11.70;;;4.70;;
56481;SDS011;42384;45.186;19.958;2024-01-25T10:32:16;9.65;;;4.15;;
56481;SDS011;42384;45.186;19.958;2024-01-25T10:34:42;11.70;;;4.83;;
56481;SDS011;42384;45.186;19.958;2024-01-25T10:37:09;9.73;;;4.13;;
56481;SDS011;42384;45.186;19.958;2024-01-25T10:39:36;10.85;;;4.18;;
56481;SDS011;42384;45.186;19.958;2024-01-25T10:42:02;7.53;;;3.67;;
56481;SDS011;42384;45.186;19.958;2024-01-25T10:44:29;11.63;;;4.07;;
56481;SDS011;42384;45.186;19.958;2024-01-25T10:46:56;12.15;;;4.45;;
56481;SDS011;42384;45.186;19.958;2024-01-25T10:49:22;11.45;;;3.70;;
56481;SDS011;42384;45.186;19.958;2024-01-25T10:51:49;12.15;;;5.47;;
56481;SDS011;42384;45.186;19.958;2024-01-25T10:54:15;13.80;;;4.40;;
56481;SDS011;42384;45.186;19.958;2024-01-25T10:56:43;12.90;;;4.43;;
56481;SDS011;42384;45.186;19.958;2024-01-25T10:59:12;15.50;;;3.97;;
56481;SDS011;42384;45.186;19.958;2024-01-25T11:01:47;10.45;;;3.38;;
56481;SDS011;42384;45.186;19.958;2024-01-25T11:04:15;16.38;;;4.78;;
56481;SDS011;42384;45.186;19.958;2024-01-25T11:06:42;10.85;;;3.90;;
56481;SDS011;42384;45.186;19.958;2024-01-25T11:11:35;10.18;;;3.80;;
56481;SDS011;42384;45.186;19.958;2024-01-25T11:14:02;15.55;;;4.70;;
56481;SDS011;42384;45.186;19.958;2024-01-25T11:16:29;11.30;;;4.88;;
56481;SDS011;42384;45.186;19.958;2024-01-25T11:18:57;14.70;;;4.28;;
56481;SDS011;42384;45.186;19.958;2024-01-25T11:24:21;14.43;;;4.43;;
56481;SDS011;42384;45.186;19.958;2024-01-25T11:26:48;17.38;;;4.15;;
56481;SDS011;42384;45.186;19.958;2024-01-25T11:29:15;14.95;;;4.00;;
56481;SDS011;42384;45.186;19.958;2024-01-25T11:31:42;10.75;;;3.22;;
56481;SDS011;42384;45.186;19.958;2024-01-25T11:36:35;15.70;;;4.55;;
56481;SDS011;42384;45.186;19.958;2024-01-25T11:39:01;12.43;;;4.77;;
56481;SDS011;42384;45.186;19.958;2024-01-25T11:41:27;19.40;;;5.45;;
56481;SDS011;42384;45.186;19.958;2024-01-25T11:43:54;16.45;;;6.20;;
56481;SDS011;42384;45.186;19.958;2024-01-25T11:46:21;20.17;;;7.53;;
56481;SDS011;42384;45.186;19.958;2024-01-25T11:48:47;19.95;;;7.82;;
56481;SDS011;42384;45.186;19.958;2024-01-25T11:51:13;15.80;;;6.93;;
56481;SDS011;42384;45.186;19.958;2024-01-25T11:53:40;21.02;;;7.03;;
56481;SDS011;42384;45.186;19.958;2024-01-25T11:56:07;16.67;;;7.05;;
56481;SDS011;42384;45.186;19.958;2024-01-25T11:58:34;20.38;;;7.18;;
56481;SDS011;42384;45.186;19.958;2024-01-25T12:01:02;22.55;;;8.07;;
56481;SDS011;42384;45.186;19.958;2024-01-25T12:03:31;18.27;;;7.80;;
56481;SDS011;42384;45.186;19.958;2024-01-25T12:05:57;15.50;;;7.57;;
56481;SDS011;42384;45.186;19.958;2024-01-25T12:08:25;17.05;;;7.43;;
56481;SDS011;42384;45.186;19.958;2024-01-25T12:11:01;25.02;;;8.48;;
56481;SDS011;42384;45.186;19.958;2024-01-25T12:13:28;18.33;;;7.47;;
56481;SDS011;42384;45.186;19.958;2024-01-25T12:15:57;18.42;;;5.47;;
56481;SDS011;42384;45.186;19.958;2024-01-25T12:18:23;13.93;;;4.93;;
56481;SDS011;42384;45.186;19.958;2024-01-25T12:20:50;17.67;;;3.88;;
56481;SDS011;42384;45.186;19.958;2024-01-25T12:23:16;14.60;;;4.53;;
56481;SDS011;42384;45.186;19.958;2024-01-25T12:25:42;18.37;;;4.90;;
56481;SDS011;42384;45.186;19.958;2024-01-25T12:28:09;15.00;;;3.97;;
56481;SDS011;42384;45.186;19.958;2024-01-25T12:33:03;14.52;;;4.07;;
56481;SDS011;42384;45.186;19.958;2024-01-25T12:35:29;18.77;;;4.05;;
56481;SDS011;42384;45.186;19.958;2024-01-25T12:37:56;11.43;;;4.43;;
56481;SDS011;42384;45.186;19.958;2024-01-25T12:40:22;21.10;;;4.23;;
56481;SDS011;42384;45.186;19.958;2024-01-25T12:42:48;16.07;;;4.87;;
56481;SDS011;42384;45.186;19.958;2024-01-25T12:45:14;13.70;;;4.43;;
56481;SDS011;42384;45.186;19.958;2024-01-25T12:47:42;14.05;;;4.63;;
56481;SDS011;42384;45.186;19.958;2024-01-25T12:50:08;16.27;;;5.50;;
56481;SDS011;42384;45.186;19.958;2024-01-25T12:52:34;16.95;;;6.53;;
56481;SDS011;42384;45.186;19.958;2024-01-25T12:55:01;20.70;;;10.10;;
56481;SDS011;42384;45.186;19.958;2024-01-25T12:59:54;23.83;;;10.43;;
56481;SDS011;42384;45.186;19.958;2024-01-25T13:02:20;24.40;;;10.63;;
56481;SDS011;42384;45.186;19.958;2024-01-25T13:04:46;26.85;;;11.32;;
56481;SDS011;42384;45.186;19.958;2024-01-25T13:07:13;22.55;;;10.45;;
56481;SDS011;42384;45.186;19.958;2024-01-25T13:09:39;28.33;;;10.63;;
56481;SDS011;42384;45.186;19.958;2024-01-25T13:12:05;27.77;;;12.27;;
56481;SDS011;42384;45.186;19.958;2024-01-25T13:14:32;19.08;;;10.60;;
56481;SDS011;42384;45.186;19.958;2024-01-25T13:16:58;22.95;;;11.13;;
56481;SDS011;42384;45.186;19.958;2024-01-25T13:19:25;26.77;;;11.40;;
56481;SDS011;42384;45.186;19.958;2024-01-25T13:21:52;21.35;;;11.90;;
56481;SDS011;42384;45.186;19.958;2024-01-25T13:24:18;22.53;;;11.13;;
56481;SDS011;42384;45.186;19.958;2024-01-25T13:26:44;19.48;;;11.70;;
56481;SDS011;42384;45.186;19.958;2024-01-25T13:29:10;20.40;;;11.40;;
56481;SDS011;42384;45.186;19.958;2024-01-25T13:31:39;20.75;;;11.07;;
56481;SDS011;42384;45.186;19.958;2024-01-25T13:34:05;21.35;;;11.25;;
56481;SDS011;42384;45.186;19.958;2024-01-25T13:36:32;20.73;;;10.90;;
56481;SDS011;42384;45.186;19.958;2024-01-25T13:38:58;18.35;;;10.57;;
56481;SDS011;42384;45.186;19.958;2024-01-25T13:41:26;21.63;;;10.67;;
56481;SDS011;42384;45.186;19.958;2024-01-25T13:43:52;17.40;;;11.13;;
56481;SDS011;42384;45.186;19.958;2024-01-25T13:46:18;24.30;;;12.02;;
56481;SDS011;42384;45.186;19.958;2024-01-25T13:48:44;23.00;;;12.30;;
56481;SDS011;42384;45.186;19.958;2024-01-25T13:51:11;22.13;;;13.07;;
56481;SDS011;42384;45.186;19.958;2024-01-25T13:56:04;26.63;;;12.70;;
56481;SDS011;42384;45.186;19.958;2024-01-25T13:58:30;23.35;;;12.77;;
56481;SDS011;42384;45.186;19.958;2024-01-25T14:00:57;21.97;;;11.50;;
56481;SDS011;42384;45.186;19.958;2024-01-25T14:03:23;20.33;;;11.30;;
56481;SDS011;42384;45.186;19.958;2024-01-25T14:05:49;23.27;;;10.57;;
56481;SDS011;42384;45.186;19.958;2024-01-25T14:08:15;20.37;;;11.37;;
56481;SDS011;42384;45.186;19.958;2024-01-25T14:10:42;21.95;;;11.45;;
56481;SDS011;42384;45.186;19.958;2024-01-25T14:13:08;23.60;;;11.60;;
56481;SDS011;42384;45.186;19.958;2024-01-25T14:15:34;19.23;;;11.00;;
56481;SDS011;42384;45.186;19.958;2024-01-25T14:18:00;22.13;;;11.60;;
56481;SDS011;42384;45.186;19.958;2024-01-25T14:20:27;24.83;;;12.55;;
56481;SDS011;42384;45.186;19.958;2024-01-25T14:22:53;21.15;;;11.70;;
56481;SDS011;42384;45.186;19.958;2024-01-25T14:25:20;20.35;;;12.15;;
56481;SDS011;42384;45.186;19.958;2024-01-25T14:27:46;25.97;;;12.73;;
56481;SDS011;42384;45.186;19.958;2024-01-25T14:30:14;20.27;;;10.48;;
56481;SDS011;42384;45.186;19.958;2024-01-25T14:32:40;26.52;;;11.68;;
56481;SDS011;42384;45.186;19.958;2024-01-25T14:35:07;21.88;;;10.77;;
56481;SDS011;42384;45.186;19.958;2024-01-25T14:37:33;20.80;;;10.05;;
56481;SDS011;42384;45.186;19.958;2024-01-25T14:40:00;18.83;;;9.55;;
56481;SDS011;42384;45.186;19.958;2024-01-25T14:42:26;23.93;;;10.03;;
56481;SDS011;42384;45.186;19.958;2024-01-25T14:44:52;21.70;;;9.48;;
56481;SDS011;42384;45.186;19.958;2024-01-25T14:47:18;19.05;;;11.40;;